BIENTÔT MET'MAP
version 2.0 !

Prévue avant fin octobre,
la nouvelle version sera
plus belle, plus complète
et hébergée sur un serveur
3 fois plus puissant...
et toujours gratuite !


Pas compatible ?
Essayez la version Mobile !

SE CONNECTER : | S'inscrire | Disclaimer | Découvrir Orbifly |
Code OACI :
Lgende : VFR VFR Marginal IFR IFR Intensif IFR Trs Intensif
Visi :
Plafond :
>= 8 km
>= 3000ft
5 8 km
1000 3000 ft
1500m 5 km
500 1000 ft
800 1500m
200 500 ft
< 800m
< 200 ft

METAR - ESMS Malmö Sturup - 27 Jan 2020 22:35 UTC - Data Source NOAA   


- Altitude de l'aérodrome : 236 ft
- Code IATA : MMX
- Pas de NOTAMs connus.


ESMS - Malmö Sturup

Dernier METAR connu : 2015/08/11 07:50 ESMS 110750Z 06011KT 9999 -TSRA FEW049CB SCT068 BKN094 18/16 Q1016
TAF AMD TAF ESMS
Valide du 27 à 18h jusqu'au 28 à 18h UTC


271955Z 2718/2818 18010KT 2500 BR -RADZ BKN003
TEMPO 2718/2723 5000 BKN005
TEMPO 2723/2804 0500 FG BKN001
TEMPO 2804/2812 4000 RA BKN008
BECMG 2812/2814 6000 NSW BKN015
TEMPO 2814/2818 3000 BR BKN008

Source NOAA


MET'MAP, la Météo Aéronautique d'un coup d'oeil ! - Copyright ORBIFLY Décembre 2007

Développement & Programmation : Alexandra Zaïnal
Co-Développement : Marc-Olivier Méhu
Soutien technique & logistique : Manuel Goepfert
Conception & Financement : Baudouin d'Aumeries